createdAt,value
2023-04-11T00:02:16.010Z,11.47
2023-04-11T00:04:43.972Z,11.48
2023-04-11T00:07:11.686Z,11.48
2023-04-11T00:09:39.468Z,11.46
2023-04-11T00:12:08.106Z,11.27
2023-04-11T00:14:35.787Z,11.36
2023-04-11T00:17:05.959Z,11.40
2023-04-11T00:19:33.623Z,11.36
2023-04-11T00:22:01.457Z,11.29
2023-04-11T00:24:29.222Z,11.33
2023-04-11T00:26:58.300Z,11.31
2023-04-11T00:29:25.976Z,11.30
2023-04-11T00:31:55.405Z,11.30
2023-04-11T00:34:24.486Z,11.30
2023-04-11T00:36:52.360Z,11.28
2023-04-11T00:39:21.155Z,11.26
2023-04-11T00:41:48.792Z,11.29
2023-04-11T00:44:16.633Z,11.23
2023-04-11T00:46:46.927Z,11.19
2023-04-11T00:49:14.685Z,11.14
2023-04-11T00:51:43.793Z,11.19
2023-04-11T00:54:12.031Z,11.19
2023-04-11T00:56:40.669Z,11.20
2023-04-11T00:59:08.394Z,11.10
2023-04-11T01:01:36.450Z,11.17
2023-04-11T01:04:04.677Z,11.14
2023-04-11T01:06:33.726Z,11.05
2023-04-11T01:09:04.796Z,11.00
2023-04-11T01:11:33.521Z,11.08
2023-04-11T01:14:01.520Z,11.01
2023-04-11T01:16:29.202Z,11.07
2023-04-11T01:18:57.110Z,11.12
2023-04-11T01:21:26.144Z,10.95
2023-04-11T01:23:56.453Z,10.94
2023-04-11T01:26:24.142Z,10.87
2023-04-11T01:28:52.615Z,10.79
2023-04-11T01:31:20.904Z,10.97
2023-04-11T01:33:48.934Z,10.82
2023-04-11T01:36:16.689Z,10.80
2023-04-11T01:38:44.371Z,10.91
2023-04-11T01:41:15.916Z,10.82
2023-04-11T01:43:44.036Z,10.77
2023-04-11T01:46:12.867Z,10.76
2023-04-11T01:48:40.745Z,10.75
2023-04-11T01:51:08.783Z,10.90
2023-04-11T01:53:36.429Z,10.95
2023-04-11T01:56:04.516Z,10.88
2023-04-11T01:58:33.543Z,10.84
2023-04-11T02:01:01.634Z,10.88
2023-04-11T02:03:29.363Z,10.89
2023-04-11T02:05:57.234Z,10.97
2023-04-11T02:08:24.990Z,10.97
2023-04-11T02:10:52.670Z,10.95
2023-04-11T02:13:20.271Z,10.93
2023-04-11T02:15:49.378Z,10.87
2023-04-11T02:18:17.187Z,10.90
2023-04-11T02:20:44.868Z,11.02
2023-04-11T02:23:12.920Z,10.92
2023-04-11T02:25:40.555Z,10.95
2023-04-11T02:28:08.456Z,10.91
2023-04-11T02:30:36.258Z,10.88
2023-04-11T02:33:05.455Z,10.76
2023-04-11T02:35:33.337Z,10.82
2023-04-11T02:38:01.149Z,10.70
2023-04-11T02:40:28.809Z,10.74
2023-04-11T02:42:56.496Z,10.75
2023-04-11T02:45:24.227Z,10.68
2023-04-11T02:47:51.937Z,10.67
2023-04-11T02:50:21.037Z,10.59
2023-04-11T02:52:49.647Z,10.73
2023-04-11T02:55:17.594Z,10.73
2023-04-11T02:57:45.396Z,10.61
2023-04-11T03:00:13.969Z,10.58
2023-04-11T03:02:42.348Z,10.60
2023-04-11T03:05:10.745Z,10.49
2023-04-11T03:07:40.475Z,10.59
2023-04-11T03:10:09.514Z,10.54
2023-04-11T03:12:37.123Z,10.58
2023-04-11T03:15:05.394Z,10.59
2023-04-11T03:17:33.213Z,10.56
2023-04-11T03:20:00.910Z,10.49
2023-04-11T03:22:28.625Z,10.54
2023-04-11T03:24:57.718Z,10.55
2023-04-11T03:27:25.359Z,10.56
2023-04-11T03:29:52.993Z,10.41
2023-04-11T03:32:20.772Z,10.49
2023-04-11T03:34:48.552Z,10.42
2023-04-11T03:37:16.197Z,10.39
2023-04-11T03:39:43.876Z,10.40
2023-04-11T03:42:13.387Z,10.49
2023-04-11T03:44:41.039Z,10.39
2023-04-11T03:47:08.855Z,10.51
2023-04-11T03:49:36.584Z,10.51
2023-04-11T03:52:06.233Z,10.40
2023-04-11T03:54:33.992Z,10.44
2023-04-11T03:57:01.725Z,10.42
2023-04-11T03:59:30.797Z,10.45
2023-04-11T04:01:58.482Z,10.33
2023-04-11T04:04:26.340Z,10.47
2023-04-11T04:06:56.803Z,10.49
2023-04-11T04:09:24.788Z,10.32
2023-04-11T04:11:52.448Z,10.27
2023-04-11T04:14:20.326Z,10.26
2023-04-11T04:16:49.493Z,10.36
2023-04-11T04:19:17.204Z,10.40
2023-04-11T04:21:45.755Z,10.44
2023-04-11T04:24:13.452Z,10.44
2023-04-11T04:26:41.236Z,10.56
2023-04-11T04:29:10.055Z,10.51
2023-04-11T04:31:38.218Z,10.38
2023-04-11T04:34:09.506Z,10.34
2023-04-11T04:36:46.164Z,10.45
2023-04-11T04:39:17.843Z,10.32
2023-04-11T04:41:49.969Z,10.21
2023-04-11T04:44:17.715Z,10.15
2023-04-11T04:46:45.480Z,10.06
2023-04-11T04:49:14.579Z,9.92
2023-04-11T04:51:42.316Z,9.86
2023-04-11T04:54:10.063Z,9.82
2023-04-11T04:56:37.718Z,9.64
2023-04-11T04:59:05.510Z,9.49
2023-04-11T05:01:33.390Z,9.51
2023-04-11T05:04:02.408Z,9.42
2023-04-11T05:06:33.281Z,9.43
2023-04-11T05:09:03.348Z,9.37
2023-04-11T05:11:30.981Z,9.17
2023-04-11T05:13:58.804Z,9.12
2023-04-11T05:16:26.748Z,9.06
2023-04-11T05:18:54.558Z,9.04
2023-04-11T05:21:22.278Z,8.99
2023-04-11T05:23:51.368Z,9.03
2023-04-11T05:26:19.167Z,8.95
2023-04-11T05:28:46.945Z,8.86
2023-04-11T05:31:14.622Z,8.96
2023-04-11T05:33:43.054Z,8.95
2023-04-11T05:36:13.761Z,8.83
2023-04-11T05:38:41.812Z,8.79
2023-04-11T05:41:11.541Z,8.79
2023-04-11T05:43:39.664Z,8.68
2023-04-11T05:46:08.892Z,8.61
2023-04-11T05:48:38.095Z,8.56
2023-04-11T05:51:06.088Z,8.65
2023-04-11T05:53:33.714Z,8.67
2023-04-11T05:56:01.824Z,8.55
2023-04-11T05:58:30.979Z,8.66
2023-04-11T06:00:59.350Z,8.71
2023-04-11T06:03:27.503Z,8.82
2023-04-11T06:05:55.484Z,8.98
2023-04-11T06:08:23.168Z,8.81
2023-04-11T06:10:50.868Z,8.81
2023-04-11T06:13:18.506Z,8.71
2023-04-11T06:15:47.544Z,8.79
2023-04-11T06:18:15.327Z,8.83
2023-04-11T06:20:43.050Z,8.79
2023-04-11T06:23:10.759Z,8.74
2023-04-11T06:25:38.474Z,8.78
2023-04-11T06:28:06.178Z,8.75
2023-04-11T06:30:33.902Z,8.72
2023-04-11T06:33:02.924Z,8.80
2023-04-11T06:35:30.849Z,8.80
2023-04-11T06:37:58.543Z,8.80
2023-04-11T06:40:26.230Z,8.82
2023-04-11T06:42:53.892Z,8.89
2023-04-11T06:45:21.506Z,8.95
2023-04-11T06:47:50.535Z,8.88
2023-04-11T06:50:19.645Z,8.91
2023-04-11T06:52:47.282Z,8.97
2023-04-11T06:55:15.578Z,8.98
2023-04-11T06:57:44.715Z,8.91
2023-04-11T07:00:13.546Z,8.96
2023-04-11T07:02:41.642Z,8.86
2023-04-11T07:05:10.287Z,9.01
2023-04-11T07:07:39.666Z,8.97
2023-04-11T07:10:08.598Z,8.85
2023-04-11T07:12:36.329Z,8.97
2023-04-11T07:15:04.907Z,9.03
2023-04-11T07:17:32.565Z,8.93
2023-04-11T07:20:00.277Z,8.97
2023-04-11T07:22:29.243Z,9.00
2023-04-11T07:24:58.415Z,8.90
2023-04-11T07:27:26.577Z,9.03
2023-04-11T07:29:54.291Z,9.05
2023-04-11T07:32:22.007Z,9.06
2023-04-11T07:34:49.954Z,9.08
2023-04-11T07:37:18.147Z,8.97
2023-04-11T07:39:45.924Z,9.07
2023-04-11T07:42:14.974Z,9.05
2023-04-11T07:44:42.677Z,9.08
2023-04-11T07:47:10.382Z,9.07
2023-04-11T07:49:38.071Z,9.03
2023-04-11T07:52:05.951Z,9.16
2023-04-11T07:54:34.105Z,9.11
2023-04-11T07:57:02.042Z,9.18
2023-04-11T07:59:31.228Z,9.14
2023-04-11T08:02:00.919Z,9.20
2023-04-11T08:04:32.559Z,9.16
2023-04-11T08:07:00.504Z,9.10
2023-04-11T08:09:28.472Z,9.08
2023-04-11T08:11:56.903Z,9.13
2023-04-11T08:14:24.636Z,9.16
2023-04-11T08:16:53.792Z,9.26
2023-04-11T08:19:22.227Z,9.28
2023-04-11T08:21:49.977Z,9.33
2023-04-11T08:24:17.856Z,9.29
2023-04-11T08:26:45.864Z,9.32
2023-04-11T08:29:13.566Z,9.35
2023-04-11T08:31:43.800Z,9.26
2023-04-11T08:34:13.503Z,9.31
2023-04-11T08:36:41.587Z,9.35
2023-04-11T08:39:09.428Z,9.31
2023-04-11T08:41:39.536Z,9.29
2023-04-11T08:44:11.680Z,9.42
2023-04-11T08:46:42.498Z,9.29
2023-04-11T08:49:10.422Z,9.17
2023-04-11T08:51:42.261Z,9.18
2023-04-11T08:54:10.520Z,9.07
2023-04-11T08:56:41.367Z,8.94
2023-04-11T08:59:09.025Z,8.83
2023-04-11T09:01:37.467Z,8.81
2023-04-11T09:04:06.376Z,8.93
2023-04-11T09:06:34.910Z,8.86
2023-04-11T09:09:06.442Z,8.84
2023-04-11T09:11:52.487Z,8.91
2023-04-11T09:14:24.725Z,8.89
2023-04-11T09:16:56.262Z,8.92
2023-04-11T09:19:28.083Z,9.02
2023-04-11T09:21:58.066Z,9.02
2023-04-11T09:24:27.715Z,9.12
2023-04-11T09:27:08.612Z,9.10
2023-04-11T09:29:38.119Z,9.14
2023-04-11T09:32:06.236Z,9.18
2023-04-11T09:34:37.467Z,9.21
2023-04-11T09:37:05.759Z,9.15
2023-04-11T09:39:34.866Z,9.21
2023-04-11T09:42:03.173Z,9.35
2023-04-11T09:44:38.460Z,9.43
2023-04-11T09:47:06.407Z,9.60
2023-04-11T09:49:36.087Z,9.61
2023-04-11T09:52:04.772Z,9.80
2023-04-11T09:54:34.684Z,9.89
2023-04-11T09:57:04.166Z,9.88
2023-04-11T09:59:33.720Z,9.97
2023-04-11T10:02:01.580Z,9.99
2023-04-11T10:04:29.907Z,10.04
2023-04-11T10:07:07.286Z,10.08
2023-04-11T10:09:39.613Z,10.15
2023-04-11T10:12:07.943Z,10.20
2023-04-11T10:14:46.011Z,10.21
2023-04-11T10:17:19.766Z,10.26
2023-04-11T10:19:50.873Z,10.36
2023-04-11T10:22:55.703Z,10.42
2023-04-11T10:25:25.213Z,10.57
2023-04-11T10:27:54.313Z,10.56
2023-04-11T10:31:00.471Z,10.57
2023-04-11T10:33:28.466Z,10.75
2023-04-11T10:36:01.996Z,10.61
2023-04-11T10:38:48.229Z,10.69
2023-04-11T10:41:19.033Z,10.79
2023-04-11T10:43:46.963Z,10.99
2023-04-11T10:46:21.692Z,11.17
2023-04-11T10:48:58.196Z,11.48
2023-04-11T10:51:27.785Z,11.63
2023-04-11T10:53:59.971Z,11.79
2023-04-11T10:56:57.626Z,11.95
2023-04-11T11:00:13.701Z,12.15
2023-04-11T11:02:42.298Z,12.37
2023-04-11T11:05:21.817Z,12.41
2023-04-11T11:07:51.779Z,12.35
2023-04-11T11:10:39.336Z,12.26
2023-04-11T11:13:08.935Z,12.05
2023-04-11T11:15:38.392Z,11.99
2023-04-11T11:18:08.176Z,11.91
2023-04-11T11:20:36.666Z,11.69
2023-04-11T11:23:06.683Z,11.66
2023-04-11T11:25:34.612Z,11.49
2023-04-11T11:28:04.218Z,11.56
2023-04-11T11:30:33.731Z,11.57
2023-04-11T11:33:15.838Z,11.70
2023-04-11T11:35:44.535Z,11.57
2023-04-11T11:38:12.347Z,11.52
2023-04-11T11:40:41.257Z,11.68
2023-04-11T11:43:08.984Z,12.13
2023-04-11T11:45:38.125Z,12.36
2023-04-11T11:48:06.031Z,12.50
2023-04-11T11:50:34.316Z,12.69
2023-04-11T11:53:14.161Z,12.40
2023-04-11T11:55:43.153Z,12.32
2023-04-11T11:58:11.160Z,12.04
2023-04-11T12:00:41.638Z,12.15
2023-04-11T12:03:10.869Z,12.37
2023-04-11T12:05:39.167Z,12.42
2023-04-11T12:08:08.875Z,12.59
2023-04-11T12:10:39.180Z,12.85
2023-04-11T12:13:15.623Z,12.90
2023-04-11T12:15:51.686Z,12.74
2023-04-11T12:18:22.115Z,12.73
2023-04-11T12:20:50.196Z,12.65
2023-04-11T12:23:18.092Z,12.48
2023-04-11T12:25:46.608Z,12.33
2023-04-11T12:28:14.638Z,12.36
2023-04-11T12:30:42.318Z,12.08
2023-04-11T12:33:11.424Z,12.11
2023-04-11T12:35:39.116Z,12.28
2023-04-11T12:38:07.762Z,12.21
2023-04-11T12:40:35.451Z,12.18
2023-04-11T12:43:03.150Z,12.04
2023-04-11T12:45:32.399Z,11.97
2023-04-11T12:48:00.420Z,12.18
2023-04-11T12:50:29.532Z,12.31
2023-04-11T12:52:57.226Z,12.47
2023-04-11T12:55:25.082Z,12.36
2023-04-11T12:57:52.720Z,12.10
2023-04-11T13:00:21.084Z,12.03
2023-04-11T13:02:49.034Z,11.98
2023-04-11T13:05:17.310Z,11.96
2023-04-11T13:07:47.476Z,11.90
2023-04-11T13:10:15.775Z,11.84
2023-04-11T13:12:45.149Z,11.91
2023-04-11T13:15:14.219Z,11.90
2023-04-11T13:17:41.996Z,11.86
2023-04-11T13:20:11.577Z,11.98
2023-04-11T13:22:39.831Z,11.70
2023-04-11T13:25:10.230Z,11.64
2023-04-11T13:27:39.678Z,11.62
2023-04-11T13:30:09.700Z,11.25
2023-04-11T13:32:37.553Z,11.18
2023-04-11T13:35:06.126Z,11.08
2023-04-11T13:37:33.899Z,10.97
2023-04-11T13:40:01.628Z,10.80
2023-04-11T13:42:31.347Z,10.78
2023-04-11T13:44:59.014Z,10.68
2023-04-11T13:47:26.792Z,10.33
2023-04-11T13:49:54.462Z,10.21
2023-04-11T13:52:22.826Z,10.14
2023-04-11T13:54:50.607Z,10.00
2023-04-11T13:57:18.274Z,9.78
2023-04-11T13:59:47.403Z,9.68
2023-04-11T14:02:15.261Z,9.63
2023-04-11T14:04:43.306Z,9.70
2023-04-11T14:07:11.098Z,9.64
2023-04-11T14:09:38.770Z,9.38
2023-04-11T14:12:06.808Z,9.35
2023-04-11T14:14:34.469Z,9.06
2023-04-11T14:17:03.620Z,9.15
2023-04-11T14:19:31.372Z,8.94
2023-04-11T14:21:59.134Z,8.99
2023-04-11T14:24:26.900Z,8.85
2023-04-11T14:26:54.566Z,8.89
2023-04-11T14:29:23.102Z,8.96
2023-04-11T14:31:51.300Z,8.86
2023-04-11T14:34:20.491Z,8.77
2023-04-11T14:36:48.203Z,8.56
2023-04-11T14:39:16.188Z,8.64
2023-04-11T14:41:44.063Z,8.44
2023-04-11T14:44:12.155Z,8.38
2023-04-11T14:46:39.943Z,8.34
2023-04-11T14:49:07.611Z,8.38
2023-04-11T14:51:37.661Z,8.50
2023-04-11T14:54:05.523Z,8.66
2023-04-11T14:56:33.257Z,8.65
2023-04-11T14:59:01.551Z,8.65
2023-04-11T15:01:29.308Z,8.53
2023-04-11T15:03:57.405Z,8.54
2023-04-11T15:06:26.266Z,8.53
2023-04-11T15:08:55.908Z,8.59
2023-04-11T15:11:23.660Z,8.64
2023-04-11T15:13:52.817Z,8.65
2023-04-11T15:16:21.741Z,8.64
2023-04-11T15:18:49.930Z,8.58
2023-04-11T15:21:17.734Z,8.66
2023-04-11T15:23:45.591Z,8.69
2023-04-11T15:26:14.707Z,8.65
2023-04-11T15:28:43.772Z,8.69
2023-04-11T15:31:14.619Z,8.67
2023-04-11T15:33:43.086Z,8.55
2023-04-11T15:36:11.263Z,8.77
2023-04-11T15:38:38.925Z,8.75
2023-04-11T15:41:07.577Z,8.87
2023-04-11T15:43:36.977Z,8.95
2023-04-11T15:46:05.060Z,8.98
2023-04-11T15:48:32.893Z,9.08
2023-04-11T15:51:00.610Z,9.25
2023-04-11T15:53:28.308Z,9.28
2023-04-11T15:55:56.562Z,9.32
2023-04-11T15:58:24.296Z,9.43
2023-04-11T16:00:54.760Z,9.38
2023-04-11T16:03:23.764Z,9.36
2023-04-11T16:05:52.963Z,9.39
2023-04-11T16:08:21.815Z,9.41
2023-04-11T16:10:49.567Z,9.43
2023-04-11T16:13:17.434Z,9.46
2023-04-11T16:15:45.048Z,9.43
2023-04-11T16:18:14.093Z,9.46
2023-04-11T16:20:41.768Z,9.40
2023-04-11T16:23:09.402Z,9.39
2023-04-11T16:25:41.258Z,9.48
2023-04-11T16:28:08.935Z,9.39
2023-04-11T16:30:36.589Z,9.09
2023-04-11T16:33:04.346Z,8.87
2023-04-11T16:35:33.404Z,8.74
2023-04-11T16:38:01.172Z,8.60
2023-04-11T16:40:31.630Z,8.40
2023-04-11T16:42:59.298Z,8.54
2023-04-11T16:45:27.023Z,8.57
2023-04-11T16:47:54.816Z,8.70
2023-04-11T16:50:22.598Z,8.73
2023-04-11T16:52:51.662Z,8.72
2023-04-11T16:55:19.426Z,8.69
2023-04-11T16:57:47.116Z,8.73
2023-04-11T17:00:19.682Z,8.66
2023-04-11T17:02:47.534Z,8.62
2023-04-11T17:05:15.376Z,8.70
2023-04-11T17:07:43.675Z,8.68
2023-04-11T17:10:13.065Z,8.57
2023-04-11T17:12:40.788Z,8.62
2023-04-11T17:15:09.368Z,8.50
2023-04-11T17:17:37.067Z,8.61
2023-04-11T17:20:09.331Z,8.63
2023-04-11T17:22:39.203Z,8.65
2023-04-11T17:25:07.837Z,8.64
2023-04-11T17:27:36.935Z,8.57
2023-04-11T17:30:05.557Z,8.58
2023-04-11T17:32:34.730Z,8.54
2023-04-11T17:35:04.445Z,8.54
2023-04-11T17:37:32.150Z,8.38
2023-04-11T17:39:59.909Z,8.33
2023-04-11T17:42:27.572Z,8.37
2023-04-11T17:44:58.869Z,8.42
2023-04-11T17:47:32.490Z,8.40
2023-04-11T17:50:00.321Z,8.41
2023-04-11T17:52:28.019Z,8.31
2023-04-11T17:54:55.729Z,8.36
2023-04-11T17:57:23.414Z,8.28
2023-04-11T17:59:51.251Z,8.29
2023-04-11T18:02:20.565Z,8.21
2023-04-11T18:04:49.194Z,8.13
2023-04-11T18:07:17.956Z,8.06
2023-04-11T18:09:47.483Z,8.01
2023-04-11T18:12:15.605Z,7.99
2023-04-11T18:14:43.398Z,8.06
2023-04-11T18:17:11.447Z,8.03
2023-04-11T18:19:40.629Z,8.10
2023-04-11T18:22:08.263Z,8.01
2023-04-11T18:24:35.934Z,8.03
2023-04-11T18:27:03.755Z,7.99
2023-04-11T18:29:31.472Z,7.98
2023-04-11T18:31:59.086Z,8.00
2023-04-11T18:34:27.270Z,7.99
2023-04-11T18:36:56.446Z,7.83
2023-04-11T18:39:24.501Z,7.91
2023-04-11T18:41:52.210Z,7.89
2023-04-11T18:44:19.872Z,7.91
2023-04-11T18:46:47.690Z,7.94
2023-04-11T18:49:17.747Z,7.94
2023-04-11T18:51:46.143Z,8.07
2023-04-11T18:54:15.324Z,7.89
2023-04-11T18:56:44.847Z,7.89
2023-04-11T18:59:17.587Z,7.82
2023-04-11T19:01:46.695Z,7.80
2023-04-11T19:04:15.447Z,7.74
2023-04-11T19:06:43.553Z,7.73
2023-04-11T19:09:11.581Z,7.68
2023-04-11T19:11:41.478Z,7.63
2023-04-11T19:14:10.424Z,7.74
2023-04-11T19:16:38.214Z,7.71
2023-04-11T19:19:06.337Z,7.75
2023-04-11T19:21:33.973Z,7.73
2023-04-11T19:24:02.147Z,7.73
2023-04-11T19:26:29.780Z,7.70
2023-04-11T19:28:59.731Z,7.67
2023-04-11T19:31:27.434Z,7.68
2023-04-11T19:33:55.890Z,7.65
2023-04-11T19:36:24.149Z,7.60
2023-04-11T19:38:51.822Z,7.58
2023-04-11T19:41:20.390Z,7.61
2023-04-11T19:43:48.518Z,7.52
2023-04-11T19:46:18.421Z,7.58
2023-04-11T19:48:46.486Z,7.65
2023-04-11T19:51:14.112Z,7.62
2023-04-11T19:53:41.741Z,7.55
2023-04-11T19:56:10.785Z,7.60
2023-04-11T19:58:39.869Z,7.66
2023-04-11T20:01:08.265Z,7.58
2023-04-11T20:03:37.387Z,7.58
2023-04-11T20:06:05.944Z,7.68
2023-04-11T20:08:33.796Z,7.65
2023-04-11T20:11:03.789Z,7.59
2023-04-11T20:13:31.759Z,7.56
2023-04-11T20:15:59.448Z,7.53
2023-04-11T20:18:27.335Z,7.49
2023-04-11T20:20:56.383Z,7.38
2023-04-11T20:23:24.191Z,7.32
2023-04-11T20:25:51.957Z,7.31
2023-04-11T20:28:19.564Z,7.22
2023-04-11T20:30:47.273Z,7.18
2023-04-11T20:33:15.004Z,7.20
2023-04-11T20:35:42.724Z,7.19
2023-04-11T20:38:11.754Z,7.18
2023-04-11T20:40:39.462Z,7.12
2023-04-11T20:43:07.134Z,7.08
2023-04-11T20:45:36.221Z,7.01
2023-04-11T20:48:06.242Z,7.02
2023-04-11T20:50:34.190Z,7.06
2023-04-11T20:53:02.633Z,6.99
2023-04-11T20:55:33.212Z,6.90
2023-04-11T20:58:00.692Z,6.90
2023-04-11T21:00:28.509Z,6.86
2023-04-11T21:02:56.327Z,6.94
2023-04-11T21:05:25.052Z,6.87
2023-04-11T21:07:54.389Z,6.80
2023-04-11T21:10:22.293Z,6.73
2023-04-11T21:12:53.704Z,6.69
2023-04-11T21:15:22.239Z,6.63
2023-04-11T21:17:50.168Z,6.60
2023-04-11T21:20:22.094Z,6.49
2023-04-11T21:22:52.744Z,6.56
2023-04-11T21:25:20.769Z,6.61
2023-04-11T21:27:49.714Z,6.53
2023-04-11T21:30:18.866Z,6.49
2023-04-11T21:32:46.545Z,6.41
2023-04-11T21:35:14.329Z,6.40
2023-04-11T21:37:42.027Z,6.34
2023-04-11T21:40:10.436Z,6.23
2023-04-11T21:42:38.095Z,6.21
2023-04-11T21:45:06.511Z,6.17
2023-04-11T21:47:35.604Z,6.20
2023-04-11T21:50:03.460Z,6.14
2023-04-11T21:52:31.160Z,6.11
2023-04-11T21:54:58.844Z,6.10
2023-04-11T21:57:26.996Z,6.10
2023-04-11T21:59:54.714Z,6.08
2023-04-11T22:02:22.580Z,6.12
2023-04-11T22:05:04.581Z,6.01
2023-04-11T22:07:38.562Z,6.00
2023-04-11T22:10:09.946Z,5.96
2023-04-11T22:12:38.043Z,5.97
2023-04-11T22:15:06.752Z,5.92
2023-04-11T22:17:34.761Z,5.94
2023-04-11T22:20:09.044Z,5.96
2023-04-11T22:22:36.815Z,5.93
2023-04-11T22:25:04.874Z,5.87
2023-04-11T22:27:34.188Z,5.93
2023-04-11T22:30:02.248Z,5.92
2023-04-11T22:32:30.739Z,5.83
2023-04-11T22:34:59.874Z,5.79
2023-04-11T22:37:29.086Z,5.73
2023-04-11T22:39:56.820Z,5.66
2023-04-11T22:42:24.721Z,5.65
2023-04-11T22:44:52.391Z,5.67
2023-04-11T22:47:21.564Z,5.66
2023-04-11T22:49:50.302Z,5.63
2023-04-11T22:52:24.048Z,5.73
2023-04-11T22:54:53.163Z,5.73
2023-04-11T22:57:21.378Z,5.74
2023-04-11T22:59:49.079Z,5.75
2023-04-11T23:02:17.259Z,5.74
2023-04-11T23:04:45.111Z,5.67
2023-04-11T23:07:12.816Z,5.65
2023-04-11T23:09:40.568Z,5.54
2023-04-11T23:12:09.818Z,5.57
2023-04-11T23:14:37.616Z,5.59
2023-04-11T23:17:05.391Z,5.52
2023-04-11T23:19:34.090Z,5.44
2023-04-11T23:22:01.827Z,5.38
2023-04-11T23:24:30.126Z,5.33
2023-04-11T23:26:58.380Z,5.25
2023-04-11T23:29:27.554Z,5.16
2023-04-11T23:31:55.255Z,5.09
2023-04-11T23:34:22.955Z,5.00
2023-04-11T23:36:51.693Z,4.89
2023-04-11T23:39:21.336Z,4.83
2023-04-11T23:41:48.961Z,4.79
2023-04-11T23:44:16.567Z,4.79
2023-04-11T23:46:45.570Z,4.74
2023-04-11T23:49:13.210Z,4.67
2023-04-11T23:51:40.974Z,4.62
2023-04-11T23:54:08.688Z,4.59
2023-04-11T23:56:36.346Z,4.59
2023-04-11T23:59:04.110Z,4.55
